logo
Search for airport 
image banner adimage banner adimage banner ad
image banner ad

HTKJ - Kilimanjaro Intl

Located in Arusha/Moshi, Tanzania, United Republic of

ICAO - HTKJ, IATA - JRO

Data provided by Airmate  

General information

Coordinates: S3°25'46" E37°4'28"
Elevation is 2932 feet MSL.
 
View others Airports in Manyara

Operational data

Special qualification required
Current time UTC:
Current local time:
Weather
METAR: HTKJ 131900Z 00000KT 9999 FEW022CB BKN023 23/22 Q1018 NOSIG
TAF: TAF HTKJ 131700Z 1318/1418 12005KT 9999 FEW023CB BKN024 BECMG 1320/1322 BKN022 PROB 30 TEMPO 1322/1402 RA BECMG 1410/1412 FEW029CB BKN030
View NOTAMs / SUP AIP / TFR affecting this airport [VIEW]
Communications frequencies: [VIEW]

Runways:

RWY identifierQFULength (ft)Width (ft)SurfaceLDA (ft)
0988°11811148ASP
27268°11811148ASP

Airport contact information

Address: Arusha/Moshi Tanzania, United Republic of

Satellite view of HTKJ